Tiempo atmosférico en la estación meteorológica de Cubillas de Rueda, León (916 m.)



Fecha
DESCASC
Temp. máxima en grados centígrados (hora)
DESCASC
Temp. mínima en grados centígrados (hora)
DESCASC
Temp. media en grados centígrados
DESCASC
Racha de viento máxima en m/sg (hora)
DESCASC
Velocidad máxima media en intervalos de 10 minutos(hora)
DESCASC
Precipitaciones diarias en mm
DESCASC
Precipitaciones de 00:00 a 06:00 en mm
DESCASC
Precipitaciones de 06:00 a 12:00 en mm
DESCASC
Precipitaciones de 12:00 a 18:00 en mm
DESCASC
Precipitaciones de 18:00 a 24:00 en mm
DESCASC
18-08-2019 24 (18:50) 9.8 (05:50) 16.9 9.17 (14:40) 5.56 (14:40) 1.8 0 0 1.8 0
17-08-2019 30.4 (19:00) 9.6 (07:10) 20 8.33 (15:30) 5 (15:30) 0 0 0 0 0
16-08-2019 30.4 (18:40) 9 (07:30) 19.7 6.94 (17:30) 4.44 (14:50) 0 0 0 0 0
15-08-2019 28.7 (17:30) 8.8 (00:00) 18.8 8.61 (19:40) 5.28 (19:40) 0 0 0 0 0
14-08-2019 28.5 (17:20) 7.4 (00:00) 18 7.5 (16:30) 4.17 (17:00) 0 0 0 0 0
13-08-2019 23.8 (19:00) 4.4 (00:00) 14.1 8.06 (15:10) 3.33 (16:10) 0 0 0 0 0
12-08-2019 20.7 (17:10) 2.7 (00:00) 11.7 10.56 (12:40) 5.28 (13:10) 0 0 0 0 0
11-08-2019 22.5 (16:50) 9.7 (00:00) 16.1 10 (19:50) 7.5 (19:50) 1.2 1.2 0 0 0
10-08-2019 23.4 (17:20) 10.3 (00:00) 16.8 7.78 (17:30) 4.44 (17:00) 0 0 0 0 0
09-08-2019 23.5 (16:30) 16.1 (00:00) 19.8 13.06 (09:10) 7.22 (15:30) 2 0 2 0 0
08-08-2019 25.6 (18:40) 13.7 (00:00) 19.7 12.5 (20:30) 6.11 (19:30) 0 0 0 0 0
07-08-2019 24.3 (14:30) 14.4 (00:00) 19.3 9.44 (15:10) 5.28 (15:00) 0.4 0 0 0 0.4
06-08-2019 27.1 (17:10) 12.2 (00:00) 19.7 6.94 (17:10) 4.17 (17:20) 0 0 0 0 0
05-08-2019 29.6 (18:20) 10.7 (00:00) 20.2 7.22 (14:30) 4.72 (14:40) 0 0 0 0 0
04-08-2019 30.3 (19:10) 12 (00:00) 21.1 8.06 (16:40) 5.28 (15:50) 0 0 0 0 0
03-08-2019 31.3 (17:50) 12 (00:00) 21.6 8.06 (15:40) 5 (16:00) 0 0 0 0 0
02-08-2019 29.7 (18:30) 9 (00:00) 19.4 7.22 (16:30) 3.89 (15:00) 0 0 0 0 0
01-08-2019 28.4 (18:40) 10.3 (00:00) 19.3 7.78 (20:30) 4.72 (20:40) 0 0 0 0 0
31-07-2019 25.2 (16:50) 8.1 (00:00) 16.7 6.39 (14:50) 3.89 (04:40) 0 0 0 0 0
30-07-2019 23.2 (18:50) 5.4 (00:00) 14.3 8.89 (20:30) 4.44 (20:40) 0 0 0 0 0
29-07-2019 23.2 (16:30) 6.7 (00:00) 15 10.28 (14:00) 6.11 (20:40) 0 0 0 0 0
28-07-2019 23.5 (21:00) 5.3 (00:00) 14.4 6.39 (15:40) 3.33 (16:10) 0 0 0 0 0
27-07-2019 19.4 (19:00) 11.7 (00:00) 15.5 8.89 (19:30) 5.83 (19:40) 6.4 2.8 3.4 0.2 0
26-07-2019 25 (16:40) 15.6 (00:00) 20.3 8.89 (15:20) 5.83 (18:30) 0.2 0 0.2 0 0
25-07-2019 29.5 (17:20) 13.2 (00:00) 21.3 10.83 (19:00) 6.11 (19:00) 0 0 0 0 0
24-07-2019 31.7 (18:40) 14.4 (00:00) 23.1 11.11 (15:40) 6.11 (00:20) 0 0 0 0 0
23-07-2019 31.4 (18:20) 14.5 (00:00) 22.9 10 (13:30) 5.83 (13:30) 0 0 0 0 0
22-07-2019 34.7 (18:20) 13.9 (00:00) 24.3 17.22 (20:40) 9.72 (20:40) 5.6 0 0 0 5.6

Gráficas

Temp. máximas Temp. mínimas Temp. medias Precipitaciones Rachas de viento máximas Velocidades máximas media en intervalos de 10 minutos

Datos horarios

Fecha y hora oficial Temperatura (ºC) Velocidad del viento (km/h) Dirección del viento Racha (km/h) Dirección de racha Precipitación (mm) Presión (hPa) Tendencia (hPa) Humedad (%)
2019-08-20 23:00:00 14.1 17 Este 32 Este 0 -- -- 63
2019-08-20 22:00:00 15.3 13 Este 33 Este 0 -- -- 58
2019-08-20 21:00:00 17.6 15 Sudeste 34 Sudeste 0 -- -- 53
2019-08-20 20:00:00 20.3 19 Este 38 Sudeste 0 -- -- 45
2019-08-20 19:00:00 21.8 19 Sudeste 40 Este 0 -- -- 42
2019-08-20 18:00:00 22.7 22 Sudeste 43 Sudeste 0 -- -- 40
2019-08-20 17:00:00 23.3 17 Este 32 Sudeste 0 -- -- 40
2019-08-20 16:00:00 23.1 16 Sudeste 33 Este 0 -- -- 39
2019-08-20 15:00:00 22.6 12 Sudeste 26 Sur 0 -- -- 41
2019-08-20 14:00:00 21.3 9 Sudeste 28 Sudeste 0 -- -- 43
2019-08-20 13:00:00 21.6 9 Sudeste 18 Sudeste 0 -- -- 41
2019-08-20 12:00:00 20 8 Sudeste 24 Este 0 -- -- 42
2019-08-20 11:00:00 17.6 9 Norte 17 Norte 0 -- -- 52
2019-08-20 10:00:00 15.7 8 Norte 12 Nordeste 0 -- -- 61
2019-08-20 09:00:00 12.8 4 Nordeste 9 Este 0 -- -- 76
2019-08-20 08:00:00 8.7 6 Este 12 Este 0 -- -- 88
2019-08-20 07:00:00 7.8 8 Este 9 Este 0 -- -- 92
2019-08-20 06:00:00 8.1 4 Este 8 Este 0 -- -- 87
2019-08-20 05:00:00 9 7 Este 13 Este 0 -- -- 87
2019-08-20 04:00:00 9.5 8 Nordeste 11 Este 0 -- -- 85
2019-08-20 03:00:00 10.8 4 Este 6 Este 0 -- -- 82
2019-08-20 02:00:00 12.6 4 Este 6 Este 0 -- -- 76
2019-08-20 01:00:00 13.5 3 Nordeste 8 Nordeste 0 -- -- 73
2019-08-20 00:00:00 14.1 8 Nordeste 12 Este 0 -- -- 71
2019-08-19 23:00:00 14.3 6 Este 10 Este 0 -- -- 73
2019-08-19 22:00:00 15.3 6 Nordeste 21 Este 0 -- -- 69
2019-08-19 21:00:00 16.7 15 Este 27 Sudeste 0 -- -- 64
2019-08-19 20:00:00 18.2 16 Sudeste 33 Sudeste 0 -- -- 58
2019-08-19 19:00:00 20.1 19 Sudeste 32 Sudeste 0 -- -- 52
2019-08-19 18:00:00 21.4 20 Sudeste 32 Sudeste 0 -- -- 49
2019-08-19 17:00:00 22.6 12 Sudeste 30 Sudeste 0 -- -- 46
2019-08-19 16:00:00 23 12 Sudeste 30 Sudeste 0 -- -- 42
2019-08-19 15:00:00 21.9 12 Noroeste 20 Noroeste 0 -- -- 45
2019-08-19 14:00:00 21.3 12 Norte 20 Norte 0 -- -- 49
2019-08-19 13:00:00 19.4 6 Este 19 Nordeste 0 -- -- 53
2019-08-19 12:00:00 18.2 8 Este 23 Este 0 -- -- 59
2019-08-19 11:00:00 16.2 10 Nordeste 16 Nordeste 0 -- -- 64
2019-08-19 10:00:00 14.6 4 Nordeste 10 Norte 0 -- -- 73
2019-08-19 09:00:00 12.8 4 Nordeste 8 Nordeste 0 -- -- 81
2019-08-19 08:00:00 11.6 3 Nordeste 5 Norte 0 -- -- 90
2019-08-19 07:00:00 11.3 0 Calma 4 Nordeste 0 -- -- 90
2019-08-19 06:00:00 11.4 2 Nordeste 4 Nordeste 0 -- -- 92
2019-08-19 05:00:00 10.2 0 Calma 5 Nordeste 0 -- -- 92
2019-08-19 04:00:00 10.1 0 Calma 5 Nordeste 0 -- -- 90
2019-08-19 03:00:00 10.1 2 Nordeste 6 Este 0 -- -- 89
2019-08-19 02:00:00 11.4 4 Este 8 Este 0 -- -- 87
2019-08-19 01:00:00 12.6 5 Este 12 Este 0 -- -- 86
2019-08-19 00:00:00 13.6 6 Este 12 Este 0 -- -- 83
2019-08-18 23:00:00 15.7 8 Nordeste 18 Nordeste 0 -- -- 79
2019-08-18 22:00:00 17.6 13 Nordeste 22 Nordeste 0 -- -- 72
2019-08-18 21:00:00 20.6 6 Sudoeste 21 Oeste 0 -- -- 52
2019-08-18 20:00:00 22.7 11 Oeste 25 Sudoeste 0 -- -- 44
2019-08-18 19:00:00 23.6 15 Oeste 26 Oeste 0 -- -- 51
2019-08-18 18:00:00 21.3 6 Noroeste 11 Noroeste 0.2 -- -- 71
2019-08-18 17:00:00 19 6 Noroeste 18 Oeste 0.6 -- -- 85
2019-08-18 16:00:00 18.6 11 Oeste 32 Oeste 1 -- -- 83
2019-08-18 15:00:00 22.5 15 Oeste 33 Sudoeste 0 -- -- 60
2019-08-18 14:00:00 23.8 18 Sudoeste 28 Sudoeste 0 -- -- 55
2019-08-18 13:00:00 23.6 16 Sudoeste 25 Oeste 0 -- -- 59
2019-08-18 12:00:00 20.3 6 Sudoeste 14 Sudoeste 0 -- -- 64
2019-08-18 11:00:00 17.6 2 Nordeste 10 Sudoeste 0 -- -- 68
2019-08-18 10:00:00 15.5 3 Oeste 10 Sudoeste 0 -- -- 77
2019-08-18 09:00:00 12.5 3 Norte 6 Nordeste 0 -- -- 83
2019-08-18 08:00:00 10.6 5 Sudeste 8 Sudeste 0 -- -- 90
2019-08-18 07:00:00 9.9 2 Norte 4 Nordeste 0 -- -- 86
2019-08-18 06:00:00 9.8 2 Sudoeste 5 Este 0 -- -- 85
2019-08-18 05:00:00 10.5 3 Nordeste 5 Este 0 -- -- 85
2019-08-18 04:00:00 11.7 3 Este 4 Este 0 -- -- 79
2019-08-18 03:00:00 13.1 2 Noroeste 4 Oeste 0 -- -- 75
2019-08-18 02:00:00 14.5 2 Oeste 4 Noroeste 0 -- -- 68
2019-08-18 01:00:00 15.9 2 Sudoeste 5 Oeste 0 -- -- 64
2019-08-18 00:00:00 18.6 3 Sudoeste 7 Sudoeste 0 -- -- 56
2019-08-17 23:00:00 22 5 Sudoeste 11 Sudoeste 0 -- -- 45
2019-08-17 22:00:00 23.9 6 Sudoeste 15 Oeste 0 -- -- 40
2019-08-17 21:00:00 27.3 10 Oeste 24 Oeste 0 -- -- 34
2019-08-17 20:00:00 29.9 12 Sudoeste 19 Oeste 0 -- -- 31
2019-08-17 19:00:00 30.4 8 Sudoeste 21 Oeste 0 -- -- 31
2019-08-17 18:00:00 29.5 14 Sudoeste 24 Oeste 0 -- -- 32
2019-08-17 17:00:00 29.3 15 Sudoeste 27 Sudoeste 0 -- -- 34
2019-08-17 16:00:00 28.6 16 Sudoeste 30 Sudoeste 0 -- -- 34
2019-08-17 15:00:00 28.1 16 Sudoeste 26 Oeste 0 -- -- 34
2019-08-17 14:00:00 26.7 13 Sudoeste 23 Sudoeste 0 -- -- 39
2019-08-17 13:00:00 25 8 Sudoeste 20 Sudoeste 0 -- -- 44
2019-08-17 12:00:00 23.2 10 Sudoeste 16 Sudoeste 0 -- -- 50
2019-08-17 11:00:00 21 5 Sudoeste 12 Sudoeste 0 -- -- 56
2019-08-17 10:00:00 18.7 3 Norte 7 Norte 0 -- -- 65
2019-08-17 09:00:00 14.8 6 Nordeste 9 Nordeste 0 -- -- 81
2019-08-17 08:00:00 11 6 Nordeste 9 Norte 0 -- -- 88
2019-08-17 07:00:00 9.9 3 Este 7 Nordeste 0 -- -- 90
2019-08-17 06:00:00 10.3 3 Este 6 Este 0 -- -- 89
2019-08-17 05:00:00 11.3 3 Nordeste 8 Nordeste 0 -- -- 86
2019-08-17 04:00:00 12 4 Nordeste 8 Nordeste 0 -- -- 88
2019-08-17 03:00:00 12.8 4 Nordeste 6 Este 0 -- -- 75
2019-08-17 02:00:00 14.8 3 Nordeste 10 Este 0 -- -- 68
2019-08-17 01:00:00 15.1 3 Este 12 Este 0 -- -- 59
2019-08-17 00:00:00 17.9 4 Sur 7 Sudoeste 0 -- -- 53
2019-08-16 23:00:00 21.4 6 Sudoeste 12 Oeste 0 -- -- 42
2019-08-16 22:00:00 23.6 5 Oeste 12 Sudoeste 0 -- -- 39
2019-08-16 21:00:00 26.5 5 Sudoeste 16 Sudoeste 0 -- -- 35
2019-08-16 20:00:00 28.8 10 Sudoeste 21 Sudoeste 0 -- -- 34
2019-08-16 19:00:00 30.3 9 Sudoeste 24 Sudoeste 0 -- -- 30
2019-08-16 18:00:00 29.9 14 Sudoeste 25 Sudoeste 0 -- -- 28
2019-08-16 17:00:00 29.6 12 Sudoeste 23 Sudoeste 0 -- -- 30
2019-08-16 16:00:00 28.8 14 Sudoeste 23 Oeste 0 -- -- 27
2019-08-16 15:00:00 27.8 14 Oeste 24 Oeste 0 -- -- 36
2019-08-16 14:00:00 27.1 12 Sudoeste 22 Sudoeste 0 -- -- 40
2019-08-16 13:00:00 26.3 10 Oeste 19 Oeste 0 -- -- 42
2019-08-16 12:00:00 24.7 3 Nordeste 12 Noroeste 0 -- -- 46
2019-08-16 11:00:00 21.6 4 Nordeste 10 Nordeste 0 -- -- 54
2019-08-16 10:00:00 18 4 Norte 9 Nordeste 0 -- -- 62
2019-08-16 09:00:00 14 5 Nordeste 9 Nordeste 0 -- -- 72
2019-08-16 08:00:00 9.9 5 Nordeste 8 Nordeste 0 -- -- 88
2019-08-16 07:00:00 9.3 4 Este 6 Este 0 -- -- 87
2019-08-16 06:00:00 9.8 3 Nordeste 5 Este 0 -- -- 86
2019-08-16 05:00:00 11 0 Calma 6 Este 0 -- -- 83
2019-08-16 04:00:00 11.2 6 Este 7 Nordeste 0 -- -- 83
2019-08-16 03:00:00 12.7 3 Nordeste 5 Nordeste 0 -- -- 80
2019-08-16 02:00:00 15.3 4 Nordeste 8 Este 0 -- -- 72
2019-08-16 01:00:00 16.1 5 Este 8 Nordeste 0 -- -- 72
2019-08-16 00:00:00 17.4 6 Este 14 Este 0 -- -- 71
2019-08-15 23:00:00 19.1 9 Este 18 Nordeste 0 -- -- 65
2019-08-15 22:00:00 21.2 8 Nordeste 19 Este 0 -- -- 58
2019-08-15 21:00:00 23.1 12 Este 31 Este 0 -- -- 53
2019-08-15 20:00:00 24.8 18 Este 31 Este 0 -- -- 47
2019-08-15 19:00:00 27.9 10 Sudoeste 21 Sudoeste 0 -- -- 38
2019-08-15 18:00:00 28.6 12 Sudoeste 25 Oeste 0 -- -- 36
2019-08-15 17:00:00 28.2 9 Oeste 24 Oeste 0 -- -- 36
2019-08-15 16:00:00 27 12 Sudoeste 24 Sudoeste 0 -- -- 38
2019-08-15 15:00:00 26.4 10 Sudoeste 20 Oeste 0 -- -- 39
2019-08-15 14:00:00 25.4 12 Sudoeste 22 Sudoeste 0 -- -- 41
2019-08-15 13:00:00 24.5 8 Sur 16 Sur 0 -- -- 42
2019-08-15 12:00:00 22.7 7 Oeste 18 Sudoeste 0 -- -- 45
2019-08-15 11:00:00 20.5 5 Oeste 11 Oeste 0 -- -- 51
2019-08-15 10:00:00 18.4 3 Sudeste 9 Este 0 -- -- 60
2019-08-15 09:00:00 13.3 0 Calma 7 Este 0 -- -- 83
2019-08-15 08:00:00 9.4 6 Este 7 Este 0 -- -- 92
2019-08-15 07:00:00 9.2 5 Nordeste 6 Nordeste 0 -- -- 95
2019-08-15 06:00:00 9.7 2 Nordeste 5 Nordeste 0 -- -- 93
2019-08-15 05:00:00 10.4 0 Calma 5 Este 0 -- -- 91
2019-08-15 04:00:00 11.7 3 Nordeste 10 Nordeste 0 -- -- 87
2019-08-15 03:00:00 12.6 3 Este 8 Este 0 -- -- 84
2019-08-15 02:00:00 14.2 5 Este 9 Nordeste 0 -- -- 82
2019-08-15 01:00:00 16 2 Sudeste 9 Sudeste 0 -- -- 75
2019-08-15 00:00:00 18 5 Este 12 Este 0 -- -- 69
2019-08-14 23:00:00 19.3 7 Este 9 Norte 0 -- -- 65
2019-08-14 22:00:00 23 9 Nordeste 13 Norte 0 -- -- 57
2019-08-14 21:00:00 25.7 12 Norte 24 Norte 0 -- -- 49
2019-08-14 20:00:00 28 2 Oeste 12 Sudoeste 0 -- -- 41
2019-08-14 19:00:00 28.1 7 Sudoeste 18 Sur 0 -- -- 41
2019-08-14 18:00:00 28.2 10 Sudoeste 24 Oeste 0 -- -- 41
2019-08-14 17:00:00 28 15 Sudoeste 27 Oeste 0 -- -- 40
2019-08-14 16:00:00 27.7 11 Sudoeste 24 Oeste 0 -- -- 39
2019-08-14 15:00:00 26.4 11 Sudoeste 22 Oeste 0 -- -- 40
2019-08-14 14:00:00 25.1 9 Sudoeste 22 Sudoeste 0 -- -- 41
2019-08-14 13:00:00 23.1 9 Sudoeste 17 Sudoeste 0 -- -- 43
2019-08-14 12:00:00 21.8 6 Oeste 15 Oeste 0 -- -- 43
2019-08-14 11:00:00 19.2 5 Noroeste 12 Norte 0 -- -- 51
2019-08-14 10:00:00 16.2 3 Norte 7 Norte 0 -- -- 66
2019-08-14 09:00:00 12.1 5 Nordeste 8 Nordeste 0 -- -- 79
2019-08-14 08:00:00 8.8 5 Nordeste 9 Nordeste 0 -- -- 90
2019-08-14 07:00:00 8.6 3 Este 9 Nordeste 0 -- -- 89
2019-08-14 06:00:00 8.8 5 Nordeste 10 Nordeste 0 -- -- 90
2019-08-14 05:00:00 9.2 5 Nordeste 9 Nordeste 0 -- -- 85
2019-08-14 04:00:00 9.7 5 Nordeste 9 Nordeste 0 -- -- 84
2019-08-14 03:00:00 11 5 Nordeste 9 Norte 0 -- -- 78
2019-08-14 02:00:00 11.4 5 Este 8 Sudeste 0 -- -- 76
2019-08-14 01:00:00 12.6 2 Este 6 Norte 0 -- -- 70
2019-08-14 00:00:00 14.6 3 Norte 15 Este 0 -- -- 64
2019-08-13 23:00:00 14.4 6 Este 8 Este 0 -- -- 55
2019-08-13 22:00:00 15.8 3 Sudeste 5 Oeste 0 -- -- 52
2019-08-13 21:00:00 22.2 4 Sudoeste 10 Sudoeste 0 -- -- 37
2019-08-13 20:00:00 23.4 8 Sudoeste 15 Oeste 0 -- -- 32
2019-08-13 19:00:00 23.8 8 Sudoeste 20 Oeste 0 -- -- 30
2019-08-13 18:00:00 23.3 9 Oeste 23 Sudoeste 0 -- -- 32
2019-08-13 17:00:00 22.9 10 Sudoeste 21 Sudoeste 0 -- -- 32
2019-08-13 16:00:00 22.3 9 Oeste 29 Sur 0 -- -- 38
2019-08-13 15:00:00 21.3 7 Oeste 21 Noroeste 0 -- -- 41
2019-08-13 14:00:00 19.6 11 Noroeste 22 Oeste 0 -- -- 47
2019-08-13 13:00:00 18.1 8 Oeste 19 Oeste 0 -- -- 51
2019-08-13 12:00:00 16.5 4 Norte 13 Noroeste 0 -- -- 56
2019-08-13 11:00:00 14.6 3 Sur 10 Norte 0 -- -- 62
2019-08-13 10:00:00 11.7 3 Norte 9 Nordeste 0 -- -- 72
2019-08-13 09:00:00 8.3 4 Nordeste 6 Nordeste 0 -- -- 85
2019-08-13 08:00:00 4.7 2 Nordeste 6 Este 0 -- -- 91
2019-08-13 07:00:00 4.8 0 Calma 4 Sur 0 -- -- 90
2019-08-13 06:00:00 5.3 3 Este 4 Este 0 -- -- 89
2019-08-13 05:00:00 7.5 0 Calma 6 Nordeste 0 -- -- 83
2019-08-13 04:00:00 9.5 4 Este 10 Este 0 -- -- 83
2019-08-13 03:00:00 10.3 6 Este 19 Sudeste 0 -- -- 81
2019-08-13 02:00:00 10.7 6 Este 14 Sudeste 0 -- -- 77
2019-08-13 01:00:00 11.2 5 Este 13 Este 0 -- -- 74
2019-08-13 00:00:00 11.9 8 Este 13 Este 0 -- -- 74
2019-08-12 23:00:00 12.3 6 Este 9 Este 0 -- -- 69
2019-08-12 22:00:00 14.1 0 Calma 12 Nordeste 0 -- -- 57
2019-08-12 21:00:00 16.7 12 Nordeste 18 Nordeste 0 -- -- 47
2019-08-12 20:00:00 17.2 13 Norte 21 Norte 0 -- -- 47
2019-08-12 19:00:00 18.4 14 Nordeste 24 Norte 0 -- -- 43
2019-08-12 18:00:00 19.4 9 Noroeste 22 Norte 0 -- -- 37
2019-08-12 17:00:00 20.3 13 Norte 24 Nordeste 0 -- -- 36
2019-08-12 16:00:00 19.5 14 Nordeste 31 Nordeste 0 -- -- 37
2019-08-12 15:00:00 19.2 12 Nordeste 28 Nordeste 0 -- -- 37
2019-08-12 14:00:00 18.1 13 Nordeste 31 Nordeste 0 -- -- 40
2019-08-12 13:00:00 17 19 Nordeste 38 Nordeste 0 -- -- 43
2019-08-12 12:00:00 16.2 17 Nordeste 30 Norte 0 -- -- 45
2019-08-12 11:00:00 15.2 16 Norte 27 Noroeste 0 -- -- 48
2019-08-12 10:00:00 13 11 Norte 17 Noroeste 0 -- -- 58
2019-08-12 09:00:00 8.8 8 Nordeste 12 Norte 0 -- -- 77
2019-08-12 08:00:00 4.5 4 Nordeste 6 Nordeste 0 -- -- 92
2019-08-12 07:00:00 2.8 0 Calma 7 Este 0 -- -- 90
2019-08-12 06:00:00 2.9 5 Este 7 Este 0 -- -- 92
2019-08-12 05:00:00 3.6 0 Calma 7 Este 0 -- -- 90
2019-08-12 04:00:00 4 3 Sudeste 4 Sudeste 0 -- -- 89
2019-08-12 03:00:00 5.4 0 Calma 6 Este 0 -- -- 84
2019-08-12 02:00:00 5.6 3 Este 5 Este 0 -- -- 84
2019-08-12 01:00:00 7.2 2 Este 5 Nordeste 0 -- -- 77
2019-08-12 00:00:00 9.7 5 Nordeste 9 Este 0 -- -- 71
2019-08-11 23:00:00 12.1 4 Norte 10 Norte 0 -- -- 67
2019-08-11 22:00:00 13.7 5 Nordeste 20 Norte 0 -- -- 62
2019-08-11 21:00:00 15.1 16 Norte 30 Norte 0 -- -- 57
2019-08-11 20:00:00 17.3 18 Norte 36 Nordeste 0 -- -- 54
2019-08-11 19:00:00 21 13 Noroeste 32 Oeste 0 -- -- 42
2019-08-11 18:00:00 22.3 18 Oeste 30 Sudoeste 0 -- -- 28
2019-08-11 17:00:00 22.3 16 Oeste 32 Oeste 0 -- -- 29
2019-08-11 16:00:00 22.4 14 Oeste 27 Sudoeste 0 -- -- 29
2019-08-11 15:00:00 20.7 13 Sudoeste 25 Oeste 0 -- -- 39
2019-08-11 14:00:00 19.5 10 Oeste 27 Oeste 0 -- -- 51
2019-08-11 13:00:00 18 13 Sudoeste 25 Sudoeste 0 -- -- 61
2019-08-11 12:00:00 16.2 9 Oeste 20 Sudoeste 0 -- -- 73
2019-08-11 11:00:00 16.1 8 Sudoeste 16 Sudoeste 0 -- -- 75
2019-08-11 10:00:00 14.8 4 Noroeste 10 Norte 0 -- -- 81
2019-08-11 09:00:00 12.5 5 Nordeste 8 Nordeste 0 -- -- 90
2019-08-11 08:00:00 10.4 0 Calma 8 Nordeste 0 -- -- 93
2019-08-11 07:00:00 11.5 3 Nordeste 9 Nordeste 0 -- -- 89
2019-08-11 06:00:00 12.4 5 Este 21 Sudeste 0.4 -- -- 90
2019-08-11 05:00:00 12.8 11 Sudeste 20 Sudeste 0.8 -- -- 89
2019-08-11 04:00:00 13.2 4 Sudoeste 9 Sudoeste 0 -- -- 83
2019-08-11 03:00:00 13.5 3 Este 6 Norte 0 -- -- 78
2019-08-11 02:00:00 13.9 3 Nordeste 7 Sudeste 0 -- -- 75
2019-08-11 01:00:00 14.3 5 Este 14 Este 0 -- -- 74
2019-08-11 00:00:00 15.3 8 Nordeste 15 Este 0 -- -- 69
2019-08-10 23:00:00 15.7 10 Nordeste 16 Norte 0 -- -- 62
2019-08-10 22:00:00 15.9 5 Este 8 Este 0 -- -- 49
2019-08-10 21:00:00 20.2 6 Este 8 Este 0 -- -- 43
2019-08-10 20:00:00 22.3 3 Oeste 13 Oeste 0 -- -- 32
2019-08-10 19:00:00 22.9 11 Oeste 23 Oeste 0 -- -- 29
2019-08-10 18:00:00 23.4 14 Oeste 28 Oeste 0 -- -- 25
2019-08-10 17:00:00 22.9 16 Oeste 26 Sudoeste 0 -- -- 34
2019-08-10 16:00:00 22.6 11 Oeste 27 Oeste 0 -- -- 35
2019-08-10 15:00:00 21.6 13 Oeste 25 Oeste 0 -- -- 38
2019-08-10 14:00:00 20.6 11 Sudoeste 22 Sudoeste 0 -- -- 39
2019-08-10 13:00:00 19.6 9 Oeste 19 Oeste 0 -- -- 39
2019-08-10 12:00:00 19 9 Sudoeste 17 Oeste 0 -- -- 41
2019-08-10 11:00:00 17.7 6 Sudoeste 16 Sudoeste 0 -- -- 47
2019-08-10 10:00:00 15.5 4 Sudoeste 11 Sur 0 -- -- 60
2019-08-10 09:00:00 13 5 Sudoeste 8 Sudoeste 0 -- -- 75
2019-08-10 08:00:00 10.3 0 Calma 6 Sudoeste 0 -- -- 82
2019-08-10 07:00:00 12.9 3 Sudoeste 8 Sudoeste 0 -- -- 78
2019-08-10 06:00:00 12.9 0 Calma 5 Sudoeste 0 -- -- 77
2019-08-10 05:00:00 13.9 3 Sudoeste 8 Oeste 0 -- -- 73
2019-08-10 04:00:00 14.2 5 Oeste 8 Oeste 0 -- -- 71
2019-08-10 03:00:00 14.5 5 Sudoeste 10 Sudoeste 0 -- -- 69
2019-08-10 02:00:00 14.9 3 Sudoeste 6 Oeste 0 -- -- 67
2019-08-10 01:00:00 15.5 2 Sudoeste 9 Oeste 0 -- -- 63
2019-08-10 00:00:00 16.3 4 Sudoeste 15 Oeste 0 -- -- 59
2019-08-09 23:00:00 17 8 Oeste 23 Oeste 0 -- -- 56
2019-08-09 22:00:00 17.8 8 Oeste 21 Sudoeste 0 -- -- 57
2019-08-09 21:00:00 19.3 8 Noroeste 26 Oeste 0 -- -- 52
2019-08-09 20:00:00 20.4 14 Sudoeste 30 Sudoeste 0 -- -- 51
2019-08-09 19:00:00 22.1 17 Sudoeste 26 Oeste 0 -- -- 46
2019-08-09 18:00:00 22.1 17 Oeste 36 Sudoeste 0 -- -- 43
2019-08-09 17:00:00 22.6 21 Sudoeste 39 Sudoeste 0 -- -- 45
2019-08-09 16:00:00 22.7 23 Sudoeste 40 Sudoeste 0 -- -- 46
2019-08-09 15:00:00 22.2 23 Sudoeste 38 Sudoeste 0 -- -- 45
2019-08-09 14:00:00 21.4 22 Sudoeste 36 Sudoeste 0 -- -- 48
2019-08-09 13:00:00 19.6 20 Sudoeste 31 Sudoeste 0 -- -- 60
2019-08-09 12:00:00 19 16 Sudoeste 30 Sudoeste 0 -- -- 69
2019-08-09 11:00:00 17.2 16 Sudoeste 30 Oeste 0 -- -- 82
2019-08-09 10:00:00 16.2 10 Oeste 47 Sudoeste 0.4 -- -- 89
2019-08-09 09:00:00 17.2 21 Sudoeste 39 Sudoeste 1.6 -- -- 92
2019-08-09 08:00:00 18.9 18 Sudoeste 37 Sudoeste 0 -- -- 83
2019-08-09 07:00:00 19 15 Sudoeste 29 Sudoeste 0 -- -- 81
2019-08-09 06:00:00 18.8 11 Sudoeste 27 Sudoeste 0 -- -- 81
2019-08-09 05:00:00 18.5 10 Sur 21 Sur 0 -- -- 81
2019-08-09 04:00:00 18.2 2 Sur 11 Sur 0 -- -- 82
2019-08-09 03:00:00 18.9 6 Sur 14 Sudoeste 0 -- -- 79
2019-08-09 02:00:00 19.2 4 Sudoeste 16 Sudoeste 0 -- -- 77
2019-08-09 01:00:00 20.5 10 Sudoeste 19 Sudoeste 0 -- -- 72
2019-08-09 00:00:00 20.8 6 Sudoeste 14 Sudoeste 0 -- -- 71
2019-08-08 23:00:00 21.4 8 Oeste 25 Oeste 0 -- -- 69
2019-08-08 22:00:00 21.9 14 Oeste 28 Sudoeste 0 -- -- 69
2019-08-08 21:00:00 23.5 15 Sudoeste 45 Oeste 0 -- -- 63
2019-08-08 20:00:00 24.7 16 Sudoeste 38 Sudoeste 0 -- -- 59
2019-08-08 19:00:00 25 17 Sudoeste 31 Oeste 0 -- -- 60
2019-08-08 18:00:00 25 18 Sudoeste 31 Sudoeste 0 -- -- 60
2019-08-08 17:00:00 24.2 13 Sudoeste 34 Sudoeste 0 -- -- 66
2019-08-08 16:00:00 23.9 17 Sudoeste 35 Sudoeste 0 -- -- 65
2019-08-08 15:00:00 23 14 Sudoeste 28 Sudoeste 0 -- -- 71
2019-08-08 14:00:00 21.7 17 Sudoeste 29 Sudoeste 0 -- -- 74
2019-08-08 13:00:00 19.5 8 Sur 19 Sur 0 -- -- 86
2019-08-08 12:00:00 19.1 9 Sur 20 Sudoeste 0 -- -- 88
2019-08-08 11:00:00 18.7 11 Sudoeste 22 Sudoeste 0 -- -- 83
2019-08-08 10:00:00 18 10 Sudoeste 21 Sudoeste 0 -- -- 85
2019-08-08 09:00:00 17.5 9 Sudoeste 18 Sur 0 -- -- 89
2019-08-08 08:00:00 16.7 3 Sur 17 Sudoeste 0 -- -- 91
2019-08-08 07:00:00 16.6 8 Sudoeste 18 Sudoeste 0 -- -- 91
2019-08-08 06:00:00 16.5 8 Sudoeste 19 Sudoeste 0 -- -- 92
2019-08-08 05:00:00 16.5 11 Sudoeste 18 Sudoeste 0 -- -- 91
2019-08-08 04:00:00 16.7 4 Sur 8 Sur 0 -- -- 91
2019-08-08 03:00:00 16.3 4 Sur 14 Sudoeste 0 -- -- 93
2019-08-08 02:00:00 15.2 0 Calma 5 Este 0 -- -- 95
2019-08-08 01:00:00 14.2 3 Este 6 Este 0 -- -- 95
2019-08-08 00:00:00 14.4 4 Este 6 Este 0 -- -- 92
2019-08-07 23:00:00 15.9 3 Sudeste 5 Sudoeste 0 -- -- 91
2019-08-07 22:00:00 16.5 4 Sudoeste 20 Sudoeste 0 -- -- 93
2019-08-07 21:00:00 16.6 12 Sudoeste 20 Sudoeste 0.4 -- -- 91
2019-08-07 20:00:00 18.3 12 Sudoeste 27 Sudoeste 0 -- -- 77
2019-08-07 19:00:00 20.5 12 Sudoeste 31 Oeste 0 -- -- 62
2019-08-07 18:00:00 21 14 Sudoeste 30 Sudoeste 0 -- -- 58
2019-08-07 17:00:00 21.9 10 Sudoeste 28 Sudoeste 0 -- -- 55
2019-08-07 16:00:00 22.1 18 Sudoeste 34 Sudoeste 0 -- -- 55
2019-08-07 15:00:00 22.9 19 Sudoeste 30 Sudoeste 0 -- -- 46
2019-08-07 14:00:00 24.2 14 Sudoeste 24 Sudoeste 0 -- -- 43
2019-08-07 13:00:00 23.7 11 Oeste 23 Oeste 0 -- -- 47
2019-08-07 12:00:00 23.3 10 Sudoeste 23 Oeste 0 -- -- 49
2019-08-07 11:00:00 21.8 5 Nordeste 11 Nordeste 0 -- -- 57
2019-08-07 10:00:00 20.1 4 Este 9 Este 0 -- -- 68
2019-08-07 09:00:00 17 3 Nordeste 9 Nordeste 0 -- -- 78
2019-08-07 08:00:00 14.7 3 Este 4 Este 0 -- -- 86
2019-08-07 07:00:00 15.9 3 Este 8 Este 0 -- -- 83
2019-08-07 06:00:00 16.2 3 Este 6 Este 0 -- -- 81
2019-08-07 05:00:00 16.5 2 Este 9 Sudeste 0 -- -- 82
2019-08-07 04:00:00 16.5 4 Este 5 Este 0 -- -- 81
2019-08-07 03:00:00 17.6 2 Este 9 Sudeste 0 -- -- 77
2019-08-07 02:00:00 18.5 5 Este 14 Este 0 -- -- 74
2019-08-07 01:00:00 19.1 14 Sudeste 26 Sudeste 0 -- -- 72
2019-08-07 00:00:00 19.9 7 Sudeste 17 Sudeste 0 -- -- 71
2019-08-06 23:00:00 20.7 10 Norte 14 Norte 0 -- -- 66
2019-08-06 22:00:00 21.8 6 Norte 17 Oeste 0 -- -- 61
2019-08-06 21:00:00 23.3 11 Oeste 24 Sudoeste 0 -- -- 40
2019-08-06 20:00:00 25 7 Sudoeste 12 Sudoeste 0 -- -- 45
2019-08-06 19:00:00 26 8 Sudoeste 15 Sudoeste 0 -- -- 41
2019-08-06 18:00:00 26.7 12 Sudoeste 25 Oeste 0 -- -- 39
2019-08-06 17:00:00 26.8 14 Sudoeste 23 Sudoeste 0 -- -- 42
2019-08-06 16:00:00 25.9 13 Oeste 21 Oeste 0 -- -- 40
2019-08-06 15:00:00 25.3 12 Sudoeste 20 Sudoeste 0 -- -- 47
2019-08-06 14:00:00 25.5 11 Sudoeste 21 Sudoeste 0 -- -- 45
2019-08-06 13:00:00 24.3 8 Sudoeste 17 Sudoeste 0 -- -- 49
2019-08-06 12:00:00 22.5 6 Sudoeste 16 Oeste 0 -- -- 54
2019-08-06 11:00:00 20.6 4 Noroeste 14 Norte 0 -- -- 64
2019-08-06 10:00:00 17.8 2 Nordeste 10 Nordeste 0 -- -- 79
2019-08-06 09:00:00 15 3 Nordeste 6 Este 0 -- -- 89
2019-08-06 08:00:00 13.4 3 Este 6 Este 0 -- -- 94
2019-08-06 07:00:00 12.3 3 Este 8 Este 0 -- -- 90
2019-08-06 06:00:00 12.5 4 Este 6 Este 0 -- -- 90
2019-08-06 05:00:00 13 3 Este 5 Nordeste 0 -- -- 88
2019-08-06 04:00:00 14 3 Nordeste 6 Este 0 -- -- 88
2019-08-06 03:00:00 15.3 6 Este 7 Este 0 -- -- 83
2019-08-06 02:00:00 16.8 4 Sudeste 8 Este 0 -- -- 78
2019-08-06 01:00:00 17.8 5 Este 16 Este 0 -- -- 73
2019-08-06 00:00:00 20.5 7 Nordeste 22 Este 0 -- -- 64
2019-08-05 23:00:00 19.9 4 Nordeste 8 Nordeste 0 -- -- 55
2019-08-05 22:00:00 22.8 3 Sur 9 Sudoeste 0 -- -- 47
2019-08-05 21:00:00 27.8 7 Sudoeste 16 Sudoeste 0 -- -- 37
2019-08-05 20:00:00 29.2 7 Sudoeste 17 Sudoeste 0 -- -- 34
2019-08-05 19:00:00 29.5 9 Sudoeste 17 Sudoeste 0 -- -- 31
2019-08-05 18:00:00 29.4 12 Oeste 22 Sudoeste 0 -- -- 29
2019-08-05 17:00:00 28.9 10 Oeste 20 Oeste 0 -- -- 25
2019-08-05 16:00:00 28 14 Sudoeste 25 Sudoeste 0 -- -- 25
2019-08-05 15:00:00 27 13 Sudoeste 26 Oeste 0 -- -- 39
2019-08-05 14:00:00 25.8 13 Oeste 25 Oeste 0 -- -- 44
2019-08-05 13:00:00 25 8 Sudoeste 18 Oeste 0 -- -- 48
2019-08-05 12:00:00 23.1 7 Sudoeste 14 Oeste 0 -- -- 55
2019-08-05 11:00:00 21.1 4 Noroeste 9 Noroeste 0 -- -- 60
2019-08-05 10:00:00 18.9 0 Calma 12 Norte 0 -- -- 70
2019-08-05 09:00:00 15.1 6 Nordeste 9 Nordeste 0 -- -- 83
2019-08-05 08:00:00 11.8 4 Nordeste 5 Nordeste 0 -- -- 93
2019-08-05 07:00:00 11.1 3 Nordeste 6 Este 0 -- -- 90
2019-08-05 06:00:00 11.5 4 Este 6 Este 0 -- -- 91
2019-08-05 05:00:00 12.1 0 Calma 8 Este 0 -- -- 85
2019-08-05 04:00:00 12.6 5 Este 8 Este 0 -- -- 88
2019-08-05 03:00:00 14 0 Calma 8 Este 0 -- -- 82
2019-08-05 02:00:00 15.4 5 Este 18 Este 0 -- -- 78
2019-08-05 01:00:00 16.5 6 Este 19 Este 0 -- -- 74
2019-08-05 00:00:00 19 7 Nordeste 19 Este 0 -- -- 67
2019-08-04 23:00:00 20.9 14 Nordeste 21 Nordeste 0 -- -- 62
2019-08-04 22:00:00 24.4 6 Oeste 15 Sudoeste 0 -- -- 44
2019-08-04 21:00:00 27.6 8 Sudoeste 19 Sudoeste 0 -- -- 35
2019-08-04 20:00:00 29.4 11 Sudoeste 22 Oeste 0 -- -- 30
2019-08-04 19:00:00 30.1 16 Oeste 26 Oeste 0 -- -- 28
2019-08-04 18:00:00 30.1 15 Oeste 26 Oeste 0 -- -- 31
2019-08-04 17:00:00 29.4 15 Sudoeste 29 Sudoeste 0 -- -- 34
2019-08-04 16:00:00 28.6 16 Sudoeste 28 Oeste 0 -- -- 34
2019-08-04 15:00:00 27.9 13 Oeste 23 Oeste 0 -- -- 38
2019-08-04 14:00:00 26.6 12 Oeste 25 Oeste 0 -- -- 41
2019-08-04 13:00:00 25.3 8 Sudoeste 19 Sudoeste 0 -- -- 46
2019-08-04 12:00:00 23.7 6 Sur 17 Sudoeste 0 -- -- 51
2019-08-04 11:00:00 22.2 8 Oeste 15 Sudoeste 0 -- -- 55
2019-08-04 10:00:00 20.5 3 Sudoeste 6 Sur 0 -- -- 61
2019-08-04 09:00:00 16.5 2 Nordeste 9 Nordeste 0 -- -- 74
2019-08-04 08:00:00 12.7 3 Nordeste 6 Nordeste 0 -- -- 86
2019-08-04 07:00:00 12.2 2 Este 8 Nordeste 0 -- -- 86
2019-08-04 06:00:00 12.9 4 Nordeste 9 Nordeste 0 -- -- 85
2019-08-04 05:00:00 13.1 3 Nordeste 6 Este 0 -- -- 85
2019-08-04 04:00:00 14.3 7 Este 10 Nordeste 0 -- -- 81
2019-08-04 03:00:00 15.8 5 Nordeste 9 Este 0 -- -- 77
2019-08-04 02:00:00 15.8 6 Este 8 Este 0 -- -- 80
2019-08-04 01:00:00 16.8 5 Este 8 Este 0 -- -- 77
2019-08-04 00:00:00 18.3 6 Este 9 Este 0 -- -- 72
2019-08-03 23:00:00 21.8 4 Norte 17 Norte 0 -- -- 63
2019-08-03 22:00:00 23.7 12 Norte 23 Nordeste 0 -- -- 58
2019-08-03 21:00:00 27 2 Sudoeste 12 Oeste 0 -- -- 41
2019-08-03 20:00:00 30.5 9 Sudoeste 17 Sudoeste 0 -- -- 29
2019-08-03 19:00:00 31 11 Sudoeste 20 Sudoeste 0 -- -- 28
2019-08-03 18:00:00 31.2 12 Sudoeste 22 Sudoeste 0 -- -- 20
2019-08-03 17:00:00 30.9 14 Oeste 26 Sudoeste 0 -- -- 25
2019-08-03 16:00:00 30.6 18 Oeste 29 Oeste 0 -- -- 26
2019-08-03 15:00:00 30.2 13 Oeste 25 Oeste 0 -- -- 28
2019-08-03 14:00:00 29.6 11 Sudoeste 23 Oeste 0 -- -- 31
2019-08-03 13:00:00 28.8 8 Oeste 18 Sudoeste 0 -- -- 34
2019-08-03 12:00:00 27.6 4 Este 20 Sudeste 0 -- -- 35
2019-08-03 11:00:00 25.2 7 Este 11 Sudeste 0 -- -- 40
2019-08-03 10:00:00 21.2 5 Norte 12 Nordeste 0 -- -- 55
2019-08-03 09:00:00 17.2 10 Nordeste 16 Nordeste 0 -- -- 66
2019-08-03 08:00:00 13.6 5 Nordeste 10 Nordeste 0 -- -- 75
2019-08-03 07:00:00 12.4 7 Nordeste 14 Nordeste 0 -- -- 79
2019-08-03 06:00:00 14.5 9 Nordeste 24 Nordeste 0 -- -- 74
2019-08-03 05:00:00 14.6 15 Nordeste 20 Nordeste 0 -- -- 74
2019-08-03 04:00:00 13.2 6 Nordeste 10 Nordeste 0 -- -- 79
2019-08-03 03:00:00 14.7 6 Este 11 Sudeste 0 -- -- 76
2019-08-03 02:00:00 14.5 6 Este 9 Este 0 -- -- 76
2019-08-03 01:00:00 16.8 6 Este 13 Este 0 -- -- 68
2019-08-03 00:00:00 18.5 8 Nordeste 18 Este 0 -- -- 64
2019-08-02 23:00:00 21.5 11 Este 22 Este 0 -- -- 56
2019-08-02 22:00:00 20.6 8 Este 21 Este 0 -- -- 47
2019-08-02 21:00:00 28 3 Oeste 13 Oeste 0 -- -- 32
2019-08-02 20:00:00 28.6 9 Sudoeste 16 Oeste 0 -- -- 29
2019-08-02 19:00:00 29.5 10 Sudoeste 17 Oeste 0 -- -- 24
2019-08-02 18:00:00 29.3 8 Sudoeste 22 Sudoeste 0 -- -- 24
2019-08-02 17:00:00 29.2 8 Noroeste 26 Oeste 0 -- -- 25
2019-08-02 16:00:00 28.6 10 Sudoeste 23 Sudoeste 0 -- -- 27
2019-08-02 15:00:00 27.8 14 Oeste 24 Sudoeste 0 -- -- 28
2019-08-02 14:00:00 27.4 8 Sudoeste 19 Oeste 0 -- -- 36
2019-08-02 13:00:00 25.3 7 Noroeste 14 Noroeste 0 -- -- 41
2019-08-02 12:00:00 23.7 5 Noroeste 10 Noroeste 0 -- -- 47
2019-08-02 11:00:00 20.7 3 Norte 7 Norte 0 -- -- 56
2019-08-02 10:00:00 17.1 4 Nordeste 12 Nordeste 0 -- -- 69
2019-08-02 09:00:00 13.3 6 Norte 9 Nordeste 0 -- -- 82
2019-08-02 08:00:00 10.4 6 Nordeste 9 Nordeste 0 -- -- 92
2019-08-02 07:00:00 9.1 4 Este 5 Este 0 -- -- 91
2019-08-02 06:00:00 9.8 3 Este 4 Nordeste 0 -- -- 88
2019-08-02 05:00:00 11.4 0 Calma 4 Este 0 -- -- 87
2019-08-02 04:00:00 12.9 4 Nordeste 8 Este 0 -- -- 84
2019-08-02 03:00:00 13 4 Este 6 Nordeste 0 -- -- 82
2019-08-02 02:00:00 14.2 4 Nordeste 9 Este 0 -- -- 81
2019-08-02 01:00:00 14.6 4 Sudeste 8 Sudeste 0 -- -- 76
2019-08-02 00:00:00 16.7 0 Calma 12 Este 0 -- -- 67
2019-08-01 23:00:00 18.6 9 Nordeste 22 Este 0 -- -- 60
2019-08-01 22:00:00 20.7 12 Este 23 Este 0 -- -- 56
2019-08-01 21:00:00 23.7 11 Este 28 Este 0 -- -- 52
2019-08-01 20:00:00 26.4 4 Oeste 21 Sudoeste 0 -- -- 33
2019-08-01 19:00:00 28.1 13 Oeste 22 Oeste 0 -- -- 29
2019-08-01 18:00:00 28 8 Sudoeste 26 Oeste 0 -- -- 26
2019-08-01 17:00:00 27.9 12 Sudoeste 26 Sudoeste 0 -- -- 28
2019-08-01 16:00:00 27 15 Sudoeste 27 Oeste 0 -- -- 34
2019-08-01 15:00:00 26.8 13 Sudoeste 21 Oeste 0 -- -- 40
2019-08-01 14:00:00 25.6 7 Sudoeste 19 Oeste 0 -- -- 46
2019-08-01 13:00:00 23.7 6 Noroeste 15 Este 0 -- -- 52
2019-08-01 12:00:00 23 8 Norte 14 Noroeste 0 -- -- 50
2019-08-01 11:00:00 21 6 Norte 11 Norte 0 -- -- 54
2019-08-01 10:00:00 18 4 Norte 8 Norte 0 -- -- 63
2019-08-01 09:00:00 14.3 6 Nordeste 13 Nordeste 0 -- -- 76
2019-08-01 08:00:00 11.9 8 Nordeste 13 Nordeste 0 -- -- 84
2019-08-01 07:00:00 10.4 7 Nordeste 10 Nordeste 0 -- -- 88
2019-08-01 06:00:00 10.6 3 Este 7 Este 0 -- -- 86
2019-08-01 05:00:00 11.1 4 Este 10 Este 0 -- -- 82
2019-08-01 04:00:00 12.7 7 Nordeste 14 Nordeste 0 -- -- 80
2019-08-01 03:00:00 14.6 9 Nordeste 13 Nordeste 0 -- -- 77
2019-08-01 02:00:00 15.4 9 Este 17 Nordeste 0 -- -- 73
2019-08-01 01:00:00 16.8 9 Norte 21 Este 0 -- -- 67
2019-08-01 00:00:00 17 13 Este 23 Este 0 -- -- 67
2019-07-31 23:00:00 17.9 10 Este 19 Este 0 -- -- 60
2019-07-31 22:00:00 20.1 9 Este 18 Este 0 -- -- 49
2019-07-31 21:00:00 22.5 12 Este 22 Este 0 -- -- 42
2019-07-31 20:00:00 23.6 9 Este 16 Este 0 -- -- 38
2019-07-31 19:00:00 24.5 6 Sudeste 16 Este 0 -- -- 32
2019-07-31 18:00:00 24.7 11 Sudeste 19 Sudeste 0 -- -- 32
2019-07-31 17:00:00 25.1 5 Nordeste 23 Sudeste 0 -- -- 32
2019-07-31 16:00:00 24.7 12 Sudeste 22 Sudeste 0 -- -- 35
2019-07-31 15:00:00 24.5 7 Este 23 Sudeste 0 -- -- 33
2019-07-31 14:00:00 23 5 Nordeste 18 Este 0 -- -- 34
2019-07-31 13:00:00 21.7 9 Sudeste 16 Sudeste 0 -- -- 43
2019-07-31 12:00:00 20.2 5 Sur 13 Nordeste 0 -- -- 50
2019-07-31 11:00:00 17.8 6 Norte 15 Nordeste 0 -- -- 59
2019-07-31 10:00:00 14.2 10 Nordeste 16 Nordeste 0 -- -- 73
2019-07-31 09:00:00 11.2 10 Nordeste 15 Nordeste 0 -- -- 80
2019-07-31 08:00:00 9.4 10 Nordeste 16 Nordeste 0 -- -- 86
2019-07-31 07:00:00 8.8 8 Nordeste 16 Este 0 -- -- 89
2019-07-31 06:00:00 8.7 5 Nordeste 10 Nordeste 0 -- -- 90
2019-07-31 05:00:00 9.9 7 Nordeste 22 Este 0 -- -- 86
2019-07-31 04:00:00 9.9 4 Este 10 Este 0 -- -- 88
2019-07-31 03:00:00 10 3 Este 9 Este 0 -- -- 88
2019-07-31 02:00:00 11.4 3 Nordeste 11 Este 0 -- -- 81
2019-07-31 01:00:00 11.7 10 Este 15 Este 0 -- -- 81
2019-07-31 00:00:00 12 10 Este 18 Nordeste 0 -- -- 78
2019-07-30 23:00:00 14.6 9 Nordeste 15 Este 0 -- -- 68
2019-07-30 22:00:00 16.6 9 Este 24 Sudeste 0 -- -- 59
2019-07-30 21:00:00 20 14 Este 32 Sudeste 0 -- -- 50
2019-07-30 20:00:00 22.8 6 Noroeste 14 Noroeste 0 -- -- 30
2019-07-30 19:00:00 23 7 Norte 14 Noroeste 0 -- -- 30
2019-07-30 18:00:00 22.6 8 Noroeste 19 Oeste 0 -- -- 32
2019-07-30 17:00:00 22.2 6 Noroeste 19 Oeste 0 -- -- 33
2019-07-30 16:00:00 21.3 8 Noroeste 24 Oeste 0 -- -- 35
2019-07-30 15:00:00 20.8 9 Noroeste 19 Oeste 0 -- -- 37
2019-07-30 14:00:00 19.5 6 Norte 18 Oeste 0 -- -- 39
2019-07-30 13:00:00 18.6 3 Este 15 Oeste 0 -- -- 41
2019-07-30 12:00:00 17.1 7 Norte 18 Norte 0 -- -- 46
2019-07-30 11:00:00 15.8 6 Nordeste 13 Nordeste 0 -- -- 50
2019-07-30 10:00:00 13.8 7 Norte 17 Nordeste 0 -- -- 61
2019-07-30 09:00:00 11 2 Norte 7 Nordeste 0 -- -- 73
2019-07-30 08:00:00 6.6 3 Este 5 Este 0 -- -- 91
2019-07-30 07:00:00 6 4 Este 6 Sudeste 0 -- -- 89
2019-07-30 06:00:00 7.7 3 Este 6 Este 0 -- -- 89
2019-07-30 05:00:00 9.1 3 Este 6 Nordeste 0 -- -- 88
2019-07-30 04:00:00 7.3 3 Este 6 Este 0 -- -- 89
2019-07-30 03:00:00 8.5 0 Calma 11 Este 0 -- -- 79
2019-07-30 02:00:00 10 3 Sudeste 15 Oeste 0 -- -- 73
2019-07-30 01:00:00 11.5 8 Oeste 12 Oeste 0 -- -- 70
2019-07-30 00:00:00 13.7 5 Oeste 16 Oeste 0 -- -- 58
2019-07-29 23:00:00 15.1 10 Oeste 29 Oeste 0 -- -- 55
2019-07-29 22:00:00 16.8 13 Oeste 34 Oeste 0 -- -- 46
2019-07-29 21:00:00 19.1 21 Oeste 36 Oeste 0 -- -- 38
2019-07-29 20:00:00 21.1 19 Oeste 34 Oeste 0 -- -- 39
2019-07-29 19:00:00 22.3 20 Oeste 33 Oeste 0 -- -- 34
2019-07-29 18:00:00 22.6 16 Oeste 33 Oeste 0 -- -- 34
2019-07-29 17:00:00 22.9 17 Oeste 32 Oeste 0 -- -- 36
2019-07-29 16:00:00 22.5 17 Oeste 34 Oeste 0 -- -- 39
2019-07-29 15:00:00 22.3 17 Oeste 33 Oeste 0 -- -- 41
2019-07-29 14:00:00 21.6 17 Oeste 37 Sudoeste 0 -- -- 47
2019-07-29 13:00:00 20.4 14 Oeste 28 Oeste 0 -- -- 53
2019-07-29 12:00:00 18.8 16 Oeste 31 Oeste 0 -- -- 59
2019-07-29 11:00:00 17.6 10 Sudoeste 19 Sudoeste 0 -- -- 64
2019-07-29 10:00:00 15.2 13 Sudoeste 19 Sudoeste 0 -- -- 68
2019-07-29 09:00:00 12.5 0 Calma 4 Este 0 -- -- 76
2019-07-29 08:00:00 8.7 2 Nordeste 6 Este 0 -- -- 90
2019-07-29 07:00:00 6.8 4 Este 6 Este 0 -- -- 88
2019-07-29 06:00:00 7.3 6 Este 8 Este 0 -- -- 88
2019-07-29 05:00:00 7.7 5 Este 6 Este 0 -- -- 87
2019-07-29 04:00:00 8.4 5 Este 7 Nordeste 0 -- -- 85
2019-07-29 03:00:00 9.6 4 Nordeste 8 Nordeste 0 -- -- 79
2019-07-29 02:00:00 10.7 3 Nordeste 6 Nordeste 0 -- -- 79
2019-07-29 01:00:00 11.4 4 Este 7 Nordeste 0 -- -- 74
2019-07-29 00:00:00 13.1 4 Nordeste 8 Norte 0 -- -- 68
2019-07-28 23:00:00 14.9 7 Sudeste 11 Sudeste 0 -- -- 61
2019-07-28 22:00:00 17.7 5 Sudeste 8 Sur 0 -- -- 59
2019-07-28 21:00:00 23.5 3 Oeste 15 Sudoeste 0 -- -- 41
2019-07-28 20:00:00 23.4 9 Sudoeste 20 Sudoeste 0 -- -- 41
2019-07-28 19:00:00 23.4 10 Sudoeste 18 Oeste 0 -- -- 41
2019-07-28 18:00:00 22.8 9 Sudoeste 20 Oeste 0 -- -- 42
2019-07-28 17:00:00 22.1 10 Sudoeste 22 Oeste 0 -- -- 43
2019-07-28 16:00:00 21.1 7 Sur 23 Sudoeste 0 -- -- 47
2019-07-28 15:00:00 20 11 Sudoeste 22 Oeste 0 -- -- 51
2019-07-28 14:00:00 18.8 9 Sudoeste 20 Sudoeste 0 -- -- 52
2019-07-28 13:00:00 17.7 6 Sudoeste 18 Sudoeste 0 -- -- 56
2019-07-28 12:00:00 16.1 4 Sur 14 Sudoeste 0 -- -- 62
2019-07-28 11:00:00 14.4 5 Sur 12 Sudoeste 0 -- -- 69
2019-07-28 10:00:00 13 6 Sur 12 Sudeste 0 -- -- 81
2019-07-28 09:00:00 9.3 0 Calma 5 Nordeste 0 -- -- 88
2019-07-28 08:00:00 7.5 4 Nordeste 8 Nordeste 0 -- -- 94
2019-07-28 07:00:00 5.5 5 Este 6 Este 0 -- -- 94
2019-07-28 06:00:00 6.1 0 Calma 6 Este 0 -- -- 91
2019-07-28 05:00:00 7.3 2 Sudeste 10 Sudeste 0 -- -- 87
2019-07-28 04:00:00 8.2 3 Sur 11 Este 0 -- -- 88
2019-07-28 03:00:00 9.9 6 Este 15 Nordeste 0 -- -- 81
2019-07-28 02:00:00 11.1 7 Nordeste 15 Norte 0 -- -- 78
2019-07-28 01:00:00 11.5 4 Norte 14 Nordeste 0 -- -- 79
2019-07-28 00:00:00 11.7 3 Este 14 Nordeste 0 -- -- 76
2019-07-27 23:00:00 13.1 10 Nordeste 17 Norte 0 -- -- 73
2019-07-26 12:00:00 -- -- -- -- -- -- -- -- --
2019-07-26 11:00:00 -- -- -- -- -- -- -- -- --
2019-07-26 10:00:00 -- -- -- -- -- -- -- -- --
2019-07-26 09:00:00 -- -- -- -- -- -- -- -- --
2019-07-26 08:00:00 15.7 2 Sudeste 8 Sudeste 0 -- -- 88
2019-07-26 07:00:00 16.1 3 Sudeste 10 Sudoeste 0.2 -- -- 87
2019-07-26 06:00:00 16.6 4 Sur 10 Sudeste 0 -- -- 85
2019-07-26 05:00:00 17.3 2 Sur 16 Sur 0 -- -- 84
2019-07-26 04:00:00 18.1 8 Sur 17 Sur 0 -- -- 78
2019-07-26 03:00:00 18.8 8 Sur 14 Sur 0 -- -- 73
2019-07-26 02:00:00 19.5 7 Sudoeste 11 Sudoeste 0 -- -- 69
2019-07-26 01:00:00 20.3 4 Sudoeste 14 Sudoeste 0 -- -- 63
2019-07-26 00:00:00 21.6 9 Sudoeste 27 Sudoeste 0 -- -- 55
2019-07-25 23:00:00 22.2 2 Norte 13 Noroeste 0 -- -- 50
2019-07-25 22:00:00 22.5 6 Noroeste 19 Oeste 0 -- -- 49
2019-07-25 21:00:00 23.2 16 Noroeste 32 Oeste 0 -- -- 49
2019-07-25 20:00:00 26.2 13 Oeste 34 Oeste 0 -- -- 41
2019-07-25 19:00:00 28.3 22 Sudoeste 39 Oeste 0 -- -- 35
2019-07-25 18:00:00 28.7 18 Sudoeste 30 Oeste 0 -- -- 34
2019-07-25 17:00:00 29.4 15 Sudoeste 28 Sudoeste 0 -- -- 33
2019-07-25 16:00:00 29.4 15 Oeste 33 Sudoeste 0 -- -- 33
2019-07-25 15:00:00 28.8 21 Oeste 33 Oeste 0 -- -- 32
2019-07-25 14:00:00 27.5 15 Oeste 30 Sudoeste 0 -- -- 36
2019-07-25 13:00:00 27.1 15 Sudoeste 32 Sudoeste 0 -- -- 39
2019-07-25 12:00:00 25.1 4 Sudoeste 12 Sudoeste 0 -- -- 42
2019-07-25 11:00:00 23 6 Oeste 14 Sudoeste 0 -- -- 46
2019-07-25 10:00:00 20.8 5 Sudoeste 11 Oeste 0 -- -- 54
2019-07-25 09:00:00 18.2 2 Nordeste 4 Nordeste 0 -- -- 69
2019-07-25 08:00:00 14.3 0 Calma 6 Este 0 -- -- 85
2019-07-25 07:00:00 13.5 0 Calma 5 Norte 0 -- -- 83
2019-07-25 06:00:00 14.3 3 Nordeste 5 Este 0 -- -- 82
2019-07-25 05:00:00 15 0 Calma 4 Nordeste 0 -- -- 79
2019-07-25 04:00:00 15.2 2 Nordeste 6 Nordeste 0 -- -- 77
2019-07-25 03:00:00 15.8 4 Nordeste 8 Este 0 -- -- 78
2019-07-25 02:00:00 15.9 5 Este 6 Este 0 -- -- 75
2019-07-25 01:00:00 17.1 3 Nordeste 6 Nordeste 0 -- -- 71
2019-07-25 00:00:00 19.5 4 Nordeste 7 Nordeste 0 -- -- 63
2019-07-24 23:00:00 21 0 Calma 5 Sur 0 -- -- 58
2019-07-24 22:00:00 24.5 4 Sur 6 Sudoeste 0 -- -- 50
2019-07-24 21:00:00 29.8 4 Sudoeste 14 Oeste 0 -- -- 34
2019-07-24 20:00:00 31.1 10 Oeste 20 Oeste 0 -- -- 32
2019-07-24 19:00:00 31.5 12 Oeste 28 Oeste 0 -- -- 30
2019-07-24 18:00:00 31.2 18 Sudoeste 36 Oeste 0 -- -- 32
2019-07-24 17:00:00 31.2 19 Sudoeste 35 Sudoeste 0 -- -- 30
2019-07-24 16:00:00 30.9 18 Sudoeste 40 Sudoeste 0 -- -- 30
2019-07-24 15:00:00 30.5 21 Sudoeste 37 Sur 0 -- -- 32
2019-07-24 14:00:00 29.7 20 Sudoeste 36 Sur 0 -- -- 38
2019-07-24 13:00:00 28.9 9 Sur 22 Sur 0 -- -- 41
2019-07-24 12:00:00 27.2 8 Sudeste 17 Sudeste 0 -- -- 44
2019-07-24 11:00:00 25.3 8 Este 15 Este 0 -- -- 47
2019-07-24 10:00:00 23.3 3 Este 9 Nordeste 0 -- -- 53
2019-07-24 09:00:00 19.2 6 Nordeste 10 Nordeste 0 -- -- 65
2019-07-24 08:00:00 15.7 5 Este 8 Nordeste 0 -- -- 80
2019-07-24 07:00:00 14.6 5 Este 9 Este 0 -- -- 81
2019-07-24 06:00:00 16.8 6 Nordeste 9 Nordeste 0 -- -- 75
2019-07-24 05:00:00 17.5 5 Nordeste 13 Este 0 -- -- 73
2019-07-24 04:00:00 17.8 7 Este 13 Este 0 -- -- 72
2019-07-24 03:00:00 19.1 2 Nordeste 15 Nordeste 0 -- -- 68
2019-07-24 02:00:00 20 11 Nordeste 30 Sudeste 0 -- -- 64
2019-07-24 01:00:00 21.4 14 Este 38 Sudeste 0 -- -- 58
2019-07-24 00:00:00 22.3 12 Este 28 Este 0 -- -- 54
2019-07-23 23:00:00 24.2 11 Nordeste 22 Nordeste 0 -- -- 53
2019-07-23 22:00:00 25.2 9 Nordeste 24 Noroeste 0 -- -- 50
2019-07-23 21:00:00 27 6 Oeste 10 Noroeste 0 -- -- 50
2019-07-23 20:00:00 29.3 5 Norte 11 Norte 0 -- -- 40
2019-07-23 19:00:00 30.9 8 Norte 15 Sudoeste 0 -- -- 34
2019-07-23 18:00:00 30.8 6 Noroeste 18 Oeste 0 -- -- 34
2019-07-23 17:00:00 30.7 11 Oeste 20 Noroeste 0 -- -- 35
2019-07-23 16:00:00 29.8 13 Sudoeste 30 Sudoeste 0 -- -- 36
2019-07-23 15:00:00 29.6 11 Sudoeste 23 Sudoeste 0 -- -- 36
2019-07-23 14:00:00 28.7 14 Sudoeste 36 Sur 0 -- -- 39
2019-07-23 13:00:00 27.3 9 Sur 16 Sur 0 -- -- 46
2019-07-23 12:00:00 25.5 4 Norte 18 Nordeste 0 -- -- 56
2019-07-23 11:00:00 23.4 9 Nordeste 23 Norte 0 -- -- 58
2019-07-23 10:00:00 22.3 7 Este 15 Sudeste 0 -- -- 61
2019-07-23 09:00:00 17.6 5 Nordeste 11 Nordeste 0 -- -- 86
2019-07-23 08:00:00 15.4 2 Este 16 Sur 0 -- -- 91
2019-07-23 07:00:00 14.8 6 Nordeste 9 Nordeste 0 -- -- 90
2019-07-23 06:00:00 16.2 4 Nordeste 13 Nordeste 0 -- -- 88
2019-07-23 05:00:00 17 7 Nordeste 15 Nordeste 0 -- -- 86
2019-07-23 04:00:00 17.9 5 Noroeste 15 Este 0 -- -- 82
2019-07-23 03:00:00 18.4 3 Oeste 31 Sudeste 0 -- -- 80
2019-07-23 02:00:00 17.7 8 Nordeste 21 Este 0 -- -- 86
2019-07-23 01:00:00 17.6 11 Nordeste 20 Nordeste 0 -- -- 88
2019-07-23 00:00:00 18.2 15 Nordeste 31 Norte 0.4 -- -- 82
2019-07-22 23:00:00 19.2 3 Sur 27 Noroeste 0.2 -- -- 79
2019-07-22 22:00:00 19.5 9 Nordeste 38 Sur 2.8 -- -- 75
2019-07-22 21:00:00 20.2 12 Sur 62 Sur 2.2 -- -- 74
2019-07-22 20:00:00 34.4 8 Oeste 17 Oeste 0 -- -- 27
2019-07-22 19:00:00 34.4 9 Noroeste 21 Noroeste 0 -- -- 27
2019-07-22 18:00:00 34.6 11 Noroeste 22 Oeste 0 -- -- 27
2019-07-22 17:00:00 34.4 12 Noroeste 27 Oeste 0 -- -- 27
2019-07-22 16:00:00 34 9 Oeste 21 Oeste 0 -- -- 29
2019-07-22 15:00:00 33.2 10 Sudoeste 19 Sudeste 0 -- -- 31
2019-07-22 14:00:00 31.4 12 Sudeste 28 Sudeste 0 -- -- 34
2019-07-22 13:00:00 29.5 6 Sudeste 24 Sudeste 0 -- -- 41
2019-07-22 12:00:00 28.7 10 Sudeste 20 Sudeste 0 -- -- 41
2019-07-22 11:00:00 26.8 9 Este 24 Este 0 -- -- 49
2019-07-22 10:00:00 24.4 13 Este 24 Este 0 -- -- 59
2019-07-22 09:00:00 20 6 Norte 10 Norte 0 -- -- 73
2019-07-22 08:00:00 15.9 4 Nordeste 10 Nordeste 0 -- -- 88
2019-07-22 07:00:00 14 3 Este 6 Este 0 -- -- 89
2019-07-22 06:00:00 14.7 2 Nordeste 6 Este 0 -- -- 87
2019-07-22 05:00:00 16 2 Nordeste 9 Nordeste 0 -- -- 83
2019-07-22 04:00:00 17 7 Nordeste 11 Nordeste 0 -- -- 82
2019-07-22 03:00:00 18.9 8 Nordeste 13 Este 0 -- -- 76
2019-07-22 02:00:00 19.6 8 Nordeste 22 Este 0 -- -- 73
2019-07-22 01:00:00 20.1 13 Este 23 Este 0 -- -- 71
2019-07-22 00:00:00 21 15 Este 30 Este 0 -- -- 68